Arrington, Illinois
Current Conditions -  °F | °C
As of 9:15 AM on Thursday 18 Dec 2014 (Local Time) from KFWC Reporting Station
Overcast Overcast  
Wind Chill: -2°   Ceiling: 6500
Heat Index: -2°   Visibility: 7mi
Dew Point: -4°   Wind: 3mph
Humidity: 84%   Direction: 360°N
Pressure: 30.32"   Gusts: NA
Location:  38.4104°N, 88.5287°W
Report Text: KFWC 181515Z AUTO 36003KT 7SM SCT011 BKN065 OVC075 M02/M04 A3032 RMK AO1 T10191042
Loading
Personal Weather Stations






























Interactive Weather Map New forecast layout! Learn more

10-Day Weather Forecast

Advertisements
Track Severe Weather on mobile